createdAt,value
2022-10-08T00:01:10.234Z,14.74
2022-10-08T00:03:39.741Z,14.70
2022-10-08T00:06:16.388Z,14.99
2022-10-08T00:08:49.411Z,14.95
2022-10-08T00:11:20.079Z,14.92
2022-10-08T00:13:48.620Z,15.11
2022-10-08T00:16:37.829Z,14.97
2022-10-08T00:19:14.070Z,15.21
2022-10-08T00:21:43.893Z,15.17
2022-10-08T00:24:16.829Z,15.11
2022-10-08T00:26:44.625Z,14.89
2022-10-08T00:29:14.332Z,15.09
2022-10-08T00:31:44.510Z,15.13
2022-10-08T00:34:15.977Z,15.06
2022-10-08T00:36:42.829Z,15.25
2022-10-08T00:39:15.878Z,15.11
2022-10-08T00:41:45.314Z,15.40
2022-10-08T00:44:50.848Z,15.25
2022-10-08T00:47:32.933Z,15.32
2022-10-08T00:50:01.940Z,15.38
2022-10-08T00:52:35.395Z,15.69
2022-10-08T00:55:06.785Z,15.10
2022-10-08T00:57:35.987Z,15.40
2022-10-08T01:00:12.678Z,15.20
2022-10-08T01:02:39.622Z,15.44
2022-10-08T01:05:07.677Z,15.59
2022-10-08T01:07:45.055Z,15.60
2022-10-08T01:10:17.822Z,16.04
2022-10-08T01:12:47.962Z,15.24
2022-10-08T01:15:51.135Z,15.34
2022-10-08T01:18:27.954Z,15.30
2022-10-08T01:21:15.824Z,15.42
2022-10-08T01:23:59.531Z,15.33
2022-10-08T01:26:48.191Z,15.51
2022-10-08T01:29:16.582Z,15.38
2022-10-08T01:31:51.786Z,14.79
2022-10-08T01:34:31.975Z,15.15
2022-10-08T01:37:01.262Z,15.50
2022-10-08T01:39:33.005Z,15.16
2022-10-08T01:42:03.160Z,14.82
2022-10-08T01:44:36.043Z,15.31
2022-10-08T01:47:07.710Z,15.15
2022-10-08T01:49:43.369Z,15.16
2022-10-08T01:52:20.420Z,15.09
2022-10-08T01:54:49.534Z,15.24
2022-10-08T01:57:16.730Z,15.32
2022-10-08T01:59:54.868Z,14.82
2022-10-08T02:02:24.795Z,15.04
2022-10-08T02:04:54.460Z,15.21
2022-10-08T02:07:43.004Z,15.44
2022-10-08T02:10:14.078Z,15.24
2022-10-08T02:12:42.168Z,14.61
2022-10-08T02:15:33.866Z,14.83
2022-10-08T02:18:15.988Z,14.70
2022-10-08T02:20:52.094Z,14.86
2022-10-08T02:23:37.746Z,15.22
2022-10-08T02:26:08.607Z,14.84
2022-10-08T02:28:49.494Z,14.71
2022-10-08T02:31:40.854Z,14.70
2022-10-08T02:34:15.010Z,14.80
2022-10-08T02:36:45.690Z,14.42
2022-10-08T02:39:15.719Z,14.58
2022-10-08T02:41:52.339Z,14.62
2022-10-08T02:44:26.572Z,14.79
2022-10-08T02:46:57.926Z,14.62
2022-10-08T02:49:33.737Z,14.71
2022-10-08T02:52:02.797Z,14.55
2022-10-08T02:54:35.271Z,14.43
2022-10-08T02:57:11.616Z,14.05
2022-10-08T02:59:38.539Z,14.15
2022-10-08T03:02:06.294Z,14.32
2022-10-08T03:04:45.853Z,14.39
2022-10-08T03:07:15.127Z,14.64
2022-10-08T03:09:45.752Z,14.22
2022-10-08T03:12:12.895Z,13.75
2022-10-08T03:14:43.709Z,13.79
2022-10-08T03:17:14.276Z,13.91
2022-10-08T03:19:41.160Z,14.09
2022-10-08T03:22:08.271Z,13.85
2022-10-08T03:24:36.146Z,14.26
2022-10-08T03:27:03.931Z,14.22
2022-10-08T03:29:30.889Z,14.06
2022-10-08T03:31:57.694Z,14.04
2022-10-08T03:34:25.551Z,14.09
2022-10-08T03:36:52.376Z,14.19
2022-10-08T03:39:19.333Z,14.05
2022-10-08T03:41:46.146Z,14.44
2022-10-08T03:44:12.935Z,14.02
2022-10-08T03:46:40.626Z,13.85
2022-10-08T03:49:07.461Z,13.98
2022-10-08T03:51:34.266Z,14.20
2022-10-08T03:54:01.068Z,13.97
2022-10-08T03:56:27.886Z,14.04
2022-10-08T03:58:56.978Z,14.10
2022-10-08T04:01:25.393Z,13.76
2022-10-08T04:03:52.790Z,13.85
2022-10-08T04:06:20.432Z,13.95
2022-10-08T04:08:47.280Z,13.90
2022-10-08T04:11:16.263Z,13.28
2022-10-08T04:13:43.921Z,13.47
2022-10-08T04:16:14.132Z,13.60
2022-10-08T04:18:41.934Z,13.67
2022-10-08T04:21:12.074Z,13.53
2022-10-08T04:23:40.810Z,13.65
2022-10-08T04:26:09.106Z,13.69
2022-10-08T04:28:38.837Z,13.62
2022-10-08T04:31:12.603Z,13.36
2022-10-08T04:33:39.524Z,13.51
2022-10-08T04:36:14.854Z,13.83
2022-10-08T04:38:45.587Z,13.72
2022-10-08T04:41:15.334Z,13.86
2022-10-08T04:43:43.957Z,13.79
2022-10-08T04:46:13.238Z,13.73
2022-10-08T04:48:40.603Z,13.62
2022-10-08T04:51:10.743Z,13.42
2022-10-08T04:53:38.208Z,13.32
2022-10-08T04:56:20.766Z,13.26
2022-10-08T04:58:48.073Z,13.44
2022-10-08T05:01:17.722Z,13.42
2022-10-08T05:03:48.373Z,13.29
2022-10-08T05:06:20.845Z,13.52
2022-10-08T05:08:48.553Z,13.62
2022-10-08T05:11:16.348Z,13.54
2022-10-08T05:13:43.927Z,13.59
2022-10-08T05:16:13.858Z,13.41
2022-10-08T05:18:42.310Z,13.45
2022-10-08T05:21:12.275Z,13.55
2022-10-08T05:23:40.210Z,13.33
2022-10-08T05:26:19.397Z,13.26
2022-10-08T05:28:47.681Z,13.22
2022-10-08T05:31:18.041Z,12.98
2022-10-08T05:33:45.220Z,13.05
2022-10-08T05:36:18.337Z,13.14
2022-10-08T05:38:45.296Z,13.23
2022-10-08T05:41:17.183Z,13.17
2022-10-08T05:43:45.242Z,13.16
2022-10-08T05:46:12.692Z,13.30
2022-10-08T05:48:39.967Z,13.36
2022-10-08T05:51:09.124Z,12.60
2022-10-08T05:53:38.318Z,12.96
2022-10-08T05:56:07.584Z,12.82
2022-10-08T05:58:36.314Z,12.82
2022-10-08T06:01:06.561Z,12.61
2022-10-08T06:03:33.541Z,12.70
2022-10-08T06:06:06.425Z,12.86
2022-10-08T06:08:33.919Z,12.94
2022-10-08T06:11:01.135Z,12.82
2022-10-08T06:13:28.235Z,12.82
2022-10-08T06:16:06.817Z,12.61
2022-10-08T06:18:36.478Z,13.06
2022-10-08T06:21:24.438Z,12.74
2022-10-08T06:23:57.760Z,12.84
2022-10-08T06:26:30.557Z,12.96
2022-10-08T06:29:01.511Z,12.86
2022-10-08T06:31:28.540Z,13.01
2022-10-08T06:33:57.040Z,12.94
2022-10-08T06:36:28.531Z,12.69
2022-10-08T06:39:00.568Z,12.81
2022-10-08T06:41:30.335Z,13.09
2022-10-08T06:43:57.237Z,13.04
2022-10-08T06:46:24.128Z,13.06
2022-10-08T06:48:50.953Z,13.10
2022-10-08T06:51:19.027Z,12.69
2022-10-08T06:53:52.594Z,12.80
2022-10-08T06:56:19.442Z,12.82
2022-10-08T06:58:47.565Z,13.09
2022-10-08T07:01:20.083Z,13.10
2022-10-08T07:04:06.844Z,12.82
2022-10-08T07:06:33.861Z,12.90
2022-10-08T07:09:01.982Z,13.30
2022-10-08T07:11:31.331Z,12.81
2022-10-08T07:13:58.417Z,12.57
2022-10-08T07:16:27.036Z,13.12
2022-10-08T07:18:56.452Z,12.94
2022-10-08T07:21:23.352Z,13.07
2022-10-08T07:23:50.859Z,13.05
2022-10-08T07:26:21.029Z,13.03
2022-10-08T07:28:56.907Z,13.25
2022-10-08T07:31:28.080Z,13.29
2022-10-08T07:33:56.221Z,13.49
2022-10-08T07:36:25.088Z,13.53
2022-10-08T07:39:04.942Z,13.67
2022-10-08T07:41:32.820Z,13.95
2022-10-08T07:44:04.289Z,14.18
2022-10-08T07:46:36.835Z,14.24
2022-10-08T07:49:04.861Z,14.65
2022-10-08T07:51:33.764Z,14.09
2022-10-08T07:54:02.935Z,14.47
2022-10-08T07:56:31.248Z,14.44
2022-10-08T07:58:59.041Z,14.80
2022-10-08T08:01:30.494Z,14.66
2022-10-08T08:04:06.263Z,14.79
2022-10-08T08:06:37.692Z,15.09
2022-10-08T08:09:04.463Z,14.90
2022-10-08T08:11:31.530Z,15.09
2022-10-08T08:13:58.430Z,14.85
2022-10-08T08:16:27.423Z,14.97
2022-10-08T08:18:56.562Z,14.97
2022-10-08T08:21:29.027Z,14.94
2022-10-08T08:23:57.759Z,15.05
2022-10-08T08:26:28.815Z,15.07
2022-10-08T08:28:58.841Z,15.15
2022-10-08T08:31:30.828Z,15.61
2022-10-08T08:34:01.755Z,15.63
2022-10-08T08:36:31.671Z,15.82
2022-10-08T08:38:59.325Z,15.94
2022-10-08T08:41:36.043Z,15.57
2022-10-08T08:44:10.577Z,15.79
2022-10-08T08:46:42.518Z,14.91
2022-10-08T08:49:23.197Z,14.67
2022-10-08T08:51:50.081Z,14.99
2022-10-08T08:54:16.981Z,14.85
2022-10-08T08:56:44.200Z,14.75
2022-10-08T08:59:34.318Z,14.34
2022-10-08T09:02:06.033Z,14.27
2022-10-08T09:04:45.093Z,14.73
2022-10-08T09:07:17.243Z,14.51
2022-10-08T09:09:48.613Z,14.84
2022-10-08T09:12:21.045Z,14.85
2022-10-08T09:14:53.101Z,14.69
2022-10-08T09:17:27.929Z,14.90
2022-10-08T09:19:54.821Z,14.84
2022-10-08T09:22:31.565Z,14.94
2022-10-08T09:25:06.576Z,15.32
2022-10-08T09:27:43.529Z,15.57
2022-10-08T09:30:29.357Z,15.63
2022-10-08T09:33:16.519Z,15.71
2022-10-08T09:35:49.334Z,15.88
2022-10-08T09:38:26.337Z,15.87
2022-10-08T09:41:07.041Z,15.45
2022-10-08T09:43:35.478Z,15.90
2022-10-08T09:46:12.066Z,15.94
2022-10-08T09:48:39.749Z,15.62
2022-10-08T09:51:15.412Z,15.64
2022-10-08T09:53:42.285Z,15.91
2022-10-08T09:56:10.917Z,15.76
2022-10-08T09:58:53.943Z,15.45
2022-10-08T10:01:21.500Z,15.34
2022-10-08T10:03:55.688Z,15.33
2022-10-08T10:06:46.130Z,16.11
2022-10-08T10:09:41.091Z,16.97
2022-10-08T10:12:10.792Z,16.90
2022-10-08T10:14:45.286Z,16.46
2022-10-08T10:17:34.597Z,16.54
2022-10-08T10:20:43.922Z,16.21
2022-10-08T10:23:39.372Z,16.99
2022-10-08T10:26:15.550Z,16.38
2022-10-08T10:28:54.444Z,16.80
2022-10-08T10:31:45.391Z,16.98
2022-10-08T10:34:25.139Z,17.46
2022-10-08T10:36:59.095Z,17.43
2022-10-08T10:39:44.634Z,16.91
2022-10-08T10:42:20.713Z,17.09
2022-10-08T10:44:56.450Z,16.92
2022-10-08T10:47:31.005Z,17.14
2022-10-08T10:50:01.367Z,17.19
2022-10-08T10:53:06.838Z,16.98
2022-10-08T10:55:41.195Z,17.28
2022-10-08T10:58:21.961Z,16.96
2022-10-08T11:01:04.472Z,17.51
2022-10-08T11:03:57.441Z,17.69
2022-10-08T11:06:45.942Z,17.65
2022-10-08T11:09:12.818Z,17.27
2022-10-08T11:11:52.313Z,17.26
2022-10-08T11:14:44.606Z,17.82
2022-10-08T11:17:37.228Z,17.45
2022-10-08T11:20:22.439Z,17.11
2022-10-08T11:23:20.504Z,17.18
2022-10-08T11:26:22.402Z,17.24
2022-10-08T11:28:59.896Z,16.86
2022-10-08T11:31:47.127Z,17.11
2022-10-08T11:34:20.092Z,16.97
2022-10-08T11:36:53.023Z,16.87
2022-10-08T11:39:21.097Z,17.57
2022-10-08T11:41:55.253Z,17.91
2022-10-08T11:44:22.508Z,17.61
2022-10-08T11:46:49.492Z,18.07
2022-10-08T11:49:16.278Z,18.08
2022-10-08T11:51:45.739Z,18.54
2022-10-08T11:54:38.602Z,19.03
2022-10-08T11:57:16.434Z,18.09
2022-10-08T11:59:45.282Z,18.27
2022-10-08T12:02:33.726Z,17.89
2022-10-08T12:05:18.879Z,17.33
2022-10-08T12:07:57.554Z,17.68
2022-10-08T12:10:29.532Z,17.99
2022-10-08T12:12:59.892Z,17.35
2022-10-08T12:15:27.834Z,17.93
2022-10-08T12:17:56.101Z,17.58
2022-10-08T12:20:32.834Z,17.98
2022-10-08T12:23:10.985Z,18.08
2022-10-08T12:25:49.016Z,18.33
2022-10-08T12:28:21.943Z,18.01
2022-10-08T12:30:54.486Z,18.76
2022-10-08T12:33:22.502Z,18.50
2022-10-08T12:36:01.282Z,18.96
2022-10-08T12:38:51.241Z,19.05
2022-10-08T12:41:28.604Z,19.34
2022-10-08T12:44:08.524Z,19.20
2022-10-08T12:46:50.892Z,18.66
2022-10-08T12:49:58.321Z,18.45
2022-10-08T12:52:26.091Z,18.28
2022-10-08T12:54:56.380Z,18.84
2022-10-08T12:57:38.153Z,18.76
2022-10-08T13:00:11.391Z,19.05
2022-10-08T13:02:41.828Z,18.88
2022-10-08T13:05:32.050Z,19.14
2022-10-08T13:08:17.083Z,18.98
2022-10-08T13:10:44.026Z,19.49
2022-10-08T13:13:50.346Z,19.57
2022-10-08T13:16:23.047Z,19.69
2022-10-08T13:18:52.904Z,19.79
2022-10-08T13:21:24.535Z,19.78
2022-10-08T13:23:52.148Z,19.26
2022-10-08T13:26:52.189Z,18.89
2022-10-08T13:29:36.142Z,18.92
2022-10-08T13:32:15.702Z,18.57
2022-10-08T13:34:46.432Z,18.45
2022-10-08T13:37:21.257Z,18.91
2022-10-08T13:39:54.250Z,18.67
2022-10-08T13:42:24.798Z,18.43
2022-10-08T13:44:52.125Z,18.35
2022-10-08T13:47:21.841Z,18.22
2022-10-08T13:49:49.207Z,17.92
2022-10-08T13:52:21.576Z,16.80
2022-10-08T13:54:51.549Z,16.63
2022-10-08T13:57:18.398Z,15.94
2022-10-08T13:59:45.374Z,16.25
2022-10-08T14:02:14.350Z,16.79
2022-10-08T14:04:41.361Z,16.24
2022-10-08T14:07:27.306Z,16.09
2022-10-08T14:09:57.628Z,16.43
2022-10-08T14:12:27.017Z,15.78
2022-10-08T14:14:53.938Z,15.71
2022-10-08T14:17:21.152Z,15.76
2022-10-08T14:19:48.997Z,16.23
2022-10-08T14:22:16.697Z,16.06
2022-10-08T14:24:44.058Z,16.10
2022-10-08T14:27:10.866Z,16.16
2022-10-08T14:29:37.934Z,16.18
2022-10-08T14:32:05.755Z,15.98
2022-10-08T14:34:32.579Z,16.06
2022-10-08T14:36:59.672Z,15.69
2022-10-08T14:39:26.869Z,16.07
2022-10-08T14:41:54.181Z,15.69
2022-10-08T14:44:22.642Z,15.97
2022-10-08T14:46:52.837Z,16.32
2022-10-08T14:49:20.747Z,16.25
2022-10-08T14:51:48.484Z,16.29
2022-10-08T14:54:15.738Z,16.80
2022-10-08T14:56:43.153Z,16.68
2022-10-08T14:59:11.309Z,16.66
2022-10-08T15:01:38.830Z,16.84
2022-10-08T15:04:06.595Z,17.16
2022-10-08T15:06:34.164Z,17.39
2022-10-08T15:09:01.086Z,17.37
2022-10-08T15:11:27.987Z,17.12
2022-10-08T15:13:55.605Z,17.68
2022-10-08T15:16:22.876Z,17.89
2022-10-08T15:18:49.938Z,17.43
2022-10-08T15:21:16.778Z,17.44
2022-10-08T15:23:43.613Z,17.22
2022-10-08T15:26:16.716Z,16.82
2022-10-08T15:28:46.116Z,17.44
2022-10-08T15:31:18.385Z,17.99
2022-10-08T15:33:48.055Z,17.42
2022-10-08T15:36:18.939Z,17.11
2022-10-08T15:38:47.086Z,17.08
2022-10-08T15:41:19.764Z,16.98
2022-10-08T15:43:46.915Z,16.82
2022-10-08T15:46:18.150Z,16.56
2022-10-08T15:48:56.519Z,16.53
2022-10-08T15:51:24.759Z,16.16
2022-10-08T15:53:51.643Z,16.42
2022-10-08T15:56:18.457Z,16.15
2022-10-08T15:58:50.736Z,16.49
2022-10-08T16:01:21.085Z,16.51
2022-10-08T16:03:50.334Z,16.37
2022-10-08T16:06:20.124Z,16.86
2022-10-08T16:08:47.320Z,16.54
2022-10-08T16:11:19.982Z,16.36
2022-10-08T16:13:50.055Z,16.58
2022-10-08T16:16:17.975Z,16.17
2022-10-08T16:18:47.040Z,16.16
2022-10-08T16:21:14.241Z,15.85
2022-10-08T16:23:41.140Z,16.13
2022-10-08T16:26:11.107Z,16.26
2022-10-08T16:28:40.740Z,15.76
2022-10-08T16:31:08.669Z,15.98
2022-10-08T16:33:35.604Z,15.55
2022-10-08T16:36:05.415Z,15.66
2022-10-08T16:38:38.674Z,15.38
2022-10-08T16:41:12.844Z,15.02
2022-10-08T16:43:39.877Z,15.17
2022-10-08T16:46:14.332Z,14.99
2022-10-08T16:48:41.275Z,15.15
2022-10-08T16:51:08.150Z,15.03
2022-10-08T16:53:35.050Z,15.08
2022-10-08T16:56:04.085Z,15.07
2022-10-08T16:58:30.936Z,15.04
2022-10-08T17:00:57.926Z,15.07
2022-10-08T17:03:24.830Z,14.87
2022-10-08T17:05:51.620Z,15.20
2022-10-08T17:08:18.435Z,15.00
2022-10-08T17:10:45.336Z,15.02
2022-10-08T17:13:12.154Z,15.01
2022-10-08T17:15:39.089Z,14.88
2022-10-08T17:18:06.142Z,15.01
2022-10-08T17:20:33.092Z,15.17
2022-10-08T17:22:59.969Z,15.00
2022-10-08T17:25:26.976Z,14.74
2022-10-08T17:27:53.727Z,14.78
2022-10-08T17:30:20.574Z,14.75
2022-10-08T17:32:47.630Z,15.04
2022-10-08T17:35:14.821Z,14.71
2022-10-08T17:37:41.800Z,14.70
2022-10-08T17:40:09.210Z,14.79
2022-10-08T17:42:36.026Z,14.77
2022-10-08T17:45:03.005Z,14.62
2022-10-08T17:47:29.832Z,14.88
2022-10-08T17:49:56.674Z,14.83
2022-10-08T17:52:23.467Z,14.68
2022-10-08T17:54:50.300Z,14.89
2022-10-08T17:57:17.135Z,14.82
2022-10-08T17:59:43.904Z,14.70
2022-10-08T18:02:10.902Z,14.41
2022-10-08T18:04:37.937Z,14.22
2022-10-08T18:07:04.909Z,14.31
2022-10-08T18:09:32.557Z,14.70
2022-10-08T18:11:59.383Z,14.22
2022-10-08T18:14:26.175Z,14.14
2022-10-08T18:16:53.262Z,14.46
2022-10-08T18:19:20.343Z,14.49
2022-10-08T18:21:47.241Z,14.35
2022-10-08T18:24:15.142Z,14.23
2022-10-08T18:26:42.188Z,14.27
2022-10-08T18:29:11.998Z,14.13
2022-10-08T18:31:40.952Z,14.24
2022-10-08T18:34:11.727Z,14.37
2022-10-08T18:36:39.195Z,14.05
2022-10-08T18:39:10.117Z,14.30
2022-10-08T18:41:41.174Z,14.36
2022-10-08T18:44:12.386Z,14.02
2022-10-08T18:46:42.281Z,14.23
2022-10-08T18:49:12.190Z,14.34
2022-10-08T18:51:39.614Z,14.24
2022-10-08T18:54:07.814Z,14.07
2022-10-08T18:56:38.596Z,14.03
2022-10-08T18:59:08.590Z,14.14
2022-10-08T19:01:38.413Z,13.88
2022-10-08T19:04:08.964Z,13.94
2022-10-08T19:06:38.351Z,14.17
2022-10-08T19:09:06.783Z,14.09
2022-10-08T19:11:44.465Z,14.11
2022-10-08T19:14:14.909Z,14.02
2022-10-08T19:16:42.197Z,13.84
2022-10-08T19:19:20.933Z,13.94
2022-10-08T19:21:48.574Z,13.86
2022-10-08T19:24:21.727Z,13.71
2022-10-08T19:26:49.177Z,13.87
2022-10-08T19:29:36.003Z,13.63
2022-10-08T19:32:03.152Z,13.42
2022-10-08T19:34:30.275Z,13.51
2022-10-08T19:36:57.205Z,13.60
2022-10-08T19:39:27.527Z,13.54
2022-10-08T19:41:54.649Z,13.36
2022-10-08T19:44:22.783Z,13.54
2022-10-08T19:46:49.781Z,13.72
2022-10-08T19:49:20.263Z,13.65
2022-10-08T19:51:47.359Z,13.70
2022-10-08T19:54:15.729Z,13.65
2022-10-08T19:56:42.595Z,13.66
2022-10-08T19:59:10.670Z,13.43
2022-10-08T20:01:39.226Z,13.62
2022-10-08T20:04:07.896Z,13.61
2022-10-08T20:06:39.089Z,13.34
2022-10-08T20:09:07.283Z,13.50
2022-10-08T20:11:34.359Z,13.30
2022-10-08T20:14:01.620Z,13.48
2022-10-08T20:16:32.101Z,13.50
2022-10-08T20:19:01.517Z,13.42
2022-10-08T20:21:30.711Z,13.39
2022-10-08T20:23:57.700Z,13.08
2022-10-08T20:26:30.061Z,13.32
2022-10-08T20:28:59.403Z,13.18
2022-10-08T20:31:32.189Z,13.15
2022-10-08T20:34:01.553Z,13.10
2022-10-08T20:36:28.758Z,13.08
2022-10-08T20:38:56.363Z,13.13
2022-10-08T20:41:28.100Z,12.92
2022-10-08T20:44:00.525Z,13.01
2022-10-08T20:46:27.773Z,12.92
2022-10-08T20:48:54.857Z,12.97
2022-10-08T20:51:23.884Z,13.05
2022-10-08T20:53:52.862Z,12.80
2022-10-08T20:56:21.951Z,12.97
2022-10-08T20:58:49.596Z,12.86
2022-10-08T21:01:24.521Z,13.01
2022-10-08T21:03:52.197Z,12.90
2022-10-08T21:06:22.132Z,12.88
2022-10-08T21:08:50.738Z,12.88
2022-10-08T21:11:21.096Z,12.90
2022-10-08T21:13:48.892Z,12.80
2022-10-08T21:16:21.879Z,12.80
2022-10-08T21:18:51.341Z,12.66
2022-10-08T21:21:19.762Z,12.68
2022-10-08T21:23:49.029Z,12.65
2022-10-08T21:26:24.207Z,12.61
2022-10-08T21:28:55.008Z,12.60
2022-10-08T21:31:22.966Z,12.39
2022-10-08T21:33:51.837Z,12.56
2022-10-08T21:36:21.466Z,12.50
2022-10-08T21:38:48.696Z,12.46
2022-10-08T21:41:17.449Z,12.34
2022-10-08T21:43:50.239Z,12.41
2022-10-08T21:46:19.745Z,12.37
2022-10-08T21:48:47.609Z,12.24
2022-10-08T21:51:17.446Z,12.22
2022-10-08T21:53:47.122Z,12.15
2022-10-08T21:56:16.771Z,12.33
2022-10-08T21:58:46.242Z,12.22
2022-10-08T22:01:27.859Z,12.20
2022-10-08T22:03:55.012Z,12.09
2022-10-08T22:06:22.509Z,12.24
2022-10-08T22:08:50.267Z,12.21
2022-10-08T22:11:17.729Z,12.21
2022-10-08T22:13:44.735Z,12.17
2022-10-08T22:16:13.395Z,12.25
2022-10-08T22:18:40.808Z,12.41
2022-10-08T22:21:11.540Z,12.44
2022-10-08T22:23:38.881Z,12.30
2022-10-08T22:26:09.542Z,12.36
2022-10-08T22:28:37.571Z,12.35
2022-10-08T22:31:06.621Z,12.31
2022-10-08T22:33:34.230Z,12.41
2022-10-08T22:36:06.594Z,12.22
2022-10-08T22:38:36.146Z,12.15
2022-10-08T22:41:08.780Z,12.32
2022-10-08T22:43:36.823Z,12.40
2022-10-08T22:46:05.681Z,12.20
2022-10-08T22:48:33.306Z,12.15
2022-10-08T22:51:05.524Z,12.14
2022-10-08T22:53:32.991Z,11.93
2022-10-08T22:55:59.943Z,11.97
2022-10-08T22:58:26.719Z,12.19
2022-10-08T23:01:08.623Z,12.11
2022-10-08T23:03:36.600Z,11.93
2022-10-08T23:06:10.372Z,11.83
2022-10-08T23:08:37.152Z,11.64
2022-10-08T23:11:04.814Z,11.53
2022-10-08T23:13:32.495Z,11.87
2022-10-08T23:16:05.469Z,11.88
2022-10-08T23:18:36.843Z,11.95
2022-10-08T23:21:06.269Z,12.00
2022-10-08T23:23:33.718Z,11.92
2022-10-08T23:26:03.660Z,11.99
2022-10-08T23:28:32.708Z,11.91
2022-10-08T23:31:17.630Z,12.06
2022-10-08T23:33:47.172Z,11.84
2022-10-08T23:36:23.250Z,11.80
2022-10-08T23:38:50.710Z,11.72
2022-10-08T23:41:18.059Z,11.69
2022-10-08T23:43:47.056Z,11.67
2022-10-08T23:46:16.337Z,11.60
2022-10-08T23:48:43.619Z,11.68
2022-10-08T23:51:11.758Z,11.67
2022-10-08T23:53:39.621Z,11.53
2022-10-08T23:56:07.567Z,11.75
2022-10-08T23:58:34.388Z,11.83
